Terminal Aerodrome Forecast
Issued by NWS

Home | Current Version | Previous Version | Text Only | Print | Product List | Glossary On
Versions: 1 2 3 4 5 6 7 8 9 10 11 12 13 14 15 16 17 18 19 20 21
000
FTUS42 KFFC 040524
TAFPDK
TAF
KPDK 040524Z 0406/0506 27003KT P6SM FEW250
     FM041400 31010G18KT P6SM SCT045
     FM042000 30012G20KT P6SM BKN070
     FM050000 30008KT P6SM FEW060 SCT250=

USA.gov is the U.S. government's official web portal to all federal, state and local government web resources and services.